Time;durP1;ratioP1;P1;durP2;ratioP2;P2;SDS_P1;SDS_P2;PMS_P1;PMS_P2;Temp;Humidity;BMP_temperature;BMP_pressure;BME280_temperature;BME280_humidity;BME280_pressure;Samples;Min_cycle;Max_cycle;Signal;HPM_P1;HPM_P2
2023/07/31 00:01:46;;;;;;;;;;;;;;;16.29;100.00;99900.09;105048;1260;62001;-67
2023/07/31 00:04:12;;;;;;;;;;;;;;;16.24;100.00;99899.55;104887;1263;61174;-64
2023/07/31 00:06:39;;;;;;;;;;;;;;;16.20;100.00;99898.35;104831;1263;74483;-65
2023/07/31 00:09:07;;;;;;;;;;;;;;;16.16;100.00;99898.05;105672;1263;67985;-65
2023/07/31 00:11:34;;;;;;;;;;;;;;;16.14;100.00;99895.58;104985;1266;73249;-64
2023/07/31 00:14:00;;;;;;;;;;;;;;;16.12;100.00;99893.02;104724;1260;62291;-62
2023/07/31 00:16:27;;;;;;;;;;;;;;;16.11;100.00;99895.52;104925;1261;61152;-64
2023/07/31 00:18:54;;;;;;;;;;;;;;;16.08;100.00;99896.55;105204;1260;74775;-62
2023/07/31 00:21:21;;;;;;;;;;;;;;;16.07;100.00;99897.63;105022;1260;67260;-62
2023/07/31 00:23:48;;;;;;;;;;;;;;;16.04;100.00;99895.52;105238;1260;72873;-65
2023/07/31 00:26:15;;;;;;;;;;;;;;;16.01;100.00;99891.22;104895;1259;61375;-61
2023/07/31 00:28:42;;;;;;;;;;;;;;;15.96;100.00;99888.23;105051;1264;61152;-62
2023/07/31 00:31:09;;;;;;;;;;;;;;;15.93;100.00;99888.58;106407;1260;73517;-65
2023/07/31 00:33:36;;;;;;;;;;;;;;;15.93;100.00;99890.67;104873;1260;67791;-62
2023/07/31 00:36:03;;;;;;;;;;;;;;;15.93;100.00;99890.30;104974;1264;71265;-63
2023/07/31 00:38:30;;;;;;;;;;;;;;;15.92;100.00;99891.04;104837;1264;61299;-62
2023/07/31 00:40:57;;;;;;;;;;;;;;;15.92;100.00;99897.31;105102;1259;61227;-62
2023/07/31 00:43:24;;;;;;;;;;;;;;;15.90;100.00;99893.85;105041;1263;74670;-62
2023/07/31 00:45:51;;;;;;;;;;;;;;;15.90;100.00;99900.60;105427;1263;67006;-63
2023/07/31 00:48:19;;;;;;;;;;;;;;;15.89;100.00;99897.67;105073;1260;72529;-61
2023/07/31 00:50:45;;;;;;;;;;;;;;;15.86;100.00;99892.55;105027;1261;62040;-61
2023/07/31 00:53:13;;;;;;;;;;;;;;;15.80;100.00;99894.64;104774;1260;61184;-62
2023/07/31 00:55:39;;;;;;;;;;;;;;;15.75;100.00;99892.67;104822;1262;74682;-62
2023/07/31 00:58:06;;;;;;;;;;;;;;;15.72;100.00;99890.70;104853;1261;67239;-61
2023/07/31 01:00:33;;;;;;;;;;;;;;;15.72;100.00;99889.96;104838;1263;72964;-61
2023/07/31 01:03:00;;;;;;;;;;;;;;;15.71;100.00;99888.14;105188;1261;62085;-63
2023/07/31 01:05:33;;;;;;;;;;;;;;;15.72;100.00;99887.55;105080;1260;61308;-67
2023/07/31 01:08:15;;;;;;;;;;;;;;;15.76;100.00;99886.44;105111;1260;73404;-63
2023/07/31 01:10:47;;;;;;;;;;;;;;;15.81;100.00;99886.40;104895;1264;65941;-64
2023/07/31 01:13:14;;;;;;;;;;;;;;;15.86;100.00;99881.35;104857;1264;71317;-62
2023/07/31 01:15:41;;;;;;;;;;;;;;;15.89;100.00;99876.21;105283;1263;62369;-64
2023/07/31 01:18:08;;;;;;;;;;;;;;;15.89;100.00;99875.71;105085;1259;63164;-63
2023/07/31 01:20:36;;;;;;;;;;;;;;;15.90;100.00;99875.04;104999;1260;73537;-63
2023/07/31 01:23:18;;;;;;;;;;;;;;;15.91;100.00;99875.89;104993;1261;67267;-66
2023/07/31 01:26:04;;;;;;;;;;;;;;;15.89;100.00;99875.19;105131;1266;71732;-63
2023/07/31 01:28:33;;;;;;;;;;;;;;;15.89;100.00;99878.33;104896;1260;61930;-63
2023/07/31 01:31:00;;;;;;;;;;;;;;;15.88;100.00;99878.41;104933;1260;61231;-69
2023/07/31 01:33:27;;;;;;;;;;;;;;;15.86;100.00;99886.98;105081;1261;75279;-63
2023/07/31 01:35:54;;;;;;;;;;;;;;;15.83;100.00;99891.39;104792;1260;65374;-63
2023/07/31 01:38:22;;;;;;;;;;;;;;;15.77;100.00;99897.56;104893;1260;72646;-63
2023/07/31 01:40:52;;;;;;;;;;;;;;;15.71;100.00;99896.09;105311;1264;61279;-64
2023/07/31 01:43:20;;;;;;;;;;;;;;;15.63;100.00;99901.44;104883;1261;61235;-62
2023/07/31 01:45:47;;;;;;;;;;;;;;;15.56;100.00;99902.41;105280;1260;73551;-62
2023/07/31 01:48:13;;;;;;;;;;;;;;;15.50;100.00;99901.53;104849;1261;67131;-60
2023/07/31 01:50:41;;;;;;;;;;;;;;;15.48;100.00;99900.26;105116;1259;71542;-63
2023/07/31 01:53:08;;;;;;;;;;;;;;;15.50;100.00;99902.00;105168;1259;62551;-63
2023/07/31 01:55:34;;;;;;;;;;;;;;;15.50;100.00;99902.16;104891;1259;61350;-60
2023/07/31 01:58:01;;;;;;;;;;;;;;;15.50;100.00;99904.00;105105;1261;73507;-60
2023/07/31 02:00:28;;;;;;;;;;;;;;;15.52;100.00;99896.30;104651;1263;66093;-59
2023/07/31 02:02:55;;;;;;;;;;;;;;;15.55;100.00;99896.93;104641;1263;72550;-61
2023/07/31 02:05:22;;;;;;;;;;;;;;;15.57;100.00;99898.73;105215;1260;62659;-61
2023/07/31 02:07:49;;;;;;;;;;;;;;;15.58;100.00;99898.75;104934;1259;61347;-60
2023/07/31 02:10:16;;;;;;;;;;;;;;;15.60;100.00;99900.34;105259;1259;74532;-60
2023/07/31 02:12:43;;;;;;;;;;;;;;;15.66;100.00;99895.70;105270;1260;67226;-63
2023/07/31 02:15:10;;;;;;;;;;;;;;;15.81;100.00;99895.38;105269;1259;72269;-62
2023/07/31 02:17:37;;;;;;;;;;;;;;;15.91;100.00;99896.63;105221;1260;61344;-60
2023/07/31 02:20:04;;;;;;;;;;;;;;;15.93;100.00;99897.36;105150;1260;61251;-61
2023/07/31 02:22:31;;;;;;;;;;;;;;;15.93;100.00;99905.34;104887;1259;74703;-60
2023/07/31 02:24:58;;;;;;;;;;;;;;;15.94;100.00;99906.27;105021;1263;65954;-66
2023/07/31 02:27:27;;;;;;;;;;;;;;;15.95;100.00;99905.67;105262;1261;71277;-61
2023/07/31 02:29:55;;;;;;;;;;;;;;;15.99;100.00;99907.17;104930;1260;61228;-61
2023/07/31 02:32:21;;;;;;;;;;;;;;;16.07;100.00;99907.27;104775;1266;61185;-64
2023/07/31 02:34:48;;;;;;;;;;;;;;;16.17;100.00;99908.02;105023;1259;73919;-63
2023/07/31 02:37:16;;;;;;;;;;;;;;;16.27;100.00;99911.17;105191;1260;66062;-62
2023/07/31 02:39:43;;;;;;;;;;;;;;;16.35;100.00;99911.56;105072;1260;72700;-62
2023/07/31 02:42:10;;;;;;;;;;;;;;;16.40;100.00;99911.20;104941;1260;62075;-62
2023/07/31 02:44:37;;;;;;;;;;;;;;;16.44;100.00;99909.70;104975;1260;61204;-62
2023/07/31 02:47:04;;;;;;;;;;;;;;;16.48;100.00;99913.35;104910;1259;73685;-63
2023/07/31 02:49:31;;;;;;;;;;;;;;;16.56;100.00;99914.98;105016;1259;67325;-67
2023/07/31 02:51:58;;;;;;;;;;;;;;;16.65;100.00;99917.05;104983;1260;338991;-62
2023/07/31 02:54:25;;;;;;;;;;;;;;;16.73;100.00;99916.14;104832;1266;61339;-62
2023/07/31 02:56:52;;;;;;;;;;;;;;;16.82;100.00;99917.18;104817;1265;61265;-61
2023/07/31 02:59:19;;;;;;;;;;;;;;;16.93;100.00;99912.30;104787;1263;74548;-65
2023/07/31 03:01:46;;;;;;;;;;;;;;;17.08;100.00;99911.27;104656;1261;66980;-62
2023/07/31 03:04:13;;;;;;;;;;;;;;;17.24;100.00;99910.80;104835;1264;71258;-62
2023/07/31 03:06:43;;;;;;;;;;;;;;;17.51;100.00;99917.13;105366;1259;61301;-62
2023/07/31 03:09:10;;;;;;;;;;;;;;;17.87;100.00;99917.09;105164;1260;60542;-64
2023/07/31 03:11:37;;;;;;;;;;;;;;;18.35;100.00;99917.23;105158;1260;74607;-65
2023/07/31 03:14:04;;;;;;;;;;;;;;;19.21;100.00;99917.01;104728;1260;67840;-62
2023/07/31 03:16:31;;;;;;;;;;;;;;;20.41;100.00;99918.24;105287;1260;72757;-62
2023/07/31 03:18:58;;;;;;;;;;;;;;;21.74;100.00;99909.73;104820;1259;61683;-62
2023/07/31 03:21:24;;;;;;;;;;;;;;;22.99;100.00;99894.23;104862;1260;61326;-63
2023/07/31 03:23:51;;;;;;;;;;;;;;;24.20;100.00;99876.80;105024;1264;75576;-66
2023/07/31 03:26:18;;;;;;;;;;;;;;;25.35;100.00;99849.11;104582;1259;67594;-62
2023/07/31 03:28:45;;;;;;;;;;;;;;;26.51;100.00;99825.13;105698;1259;72395;-62
2023/07/31 03:31:12;;;;;;;;;;;;;;;27.62;100.00;99807.25;105001;1260;61256;-60
2023/07/31 03:33:39;;;;;;;;;;;;;;;28.65;100.00;99798.61;105583;1260;61261;-64
2023/07/31 03:36:07;;;;;;;;;;;;;;;29.65;100.00;99795.27;105007;1260;75127;-63
2023/07/31 03:38:34;;;;;;;;;;;;;;;30.59;100.00;99796.63;105012;1261;67019;-60
2023/07/31 03:41:02;;;;;;;;;;;;;;;31.10;100.00;99796.56;105032;1263;72690;-61
2023/07/31 03:43:29;;;;;;;;;;;;;;;31.16;100.00;99803.61;104965;1259;61355;-60
2023/07/31 03:45:56;;;;;;;;;;;;;;;31.25;100.00;99802.85;105305;1259;61334;-63
2023/07/31 03:48:24;;;;;;;;;;;;;;;31.32;100.00;99806.79;104789;1264;73485;-60
2023/07/31 03:50:51;;;;;;;;;;;;;;;31.08;100.00;99808.59;105084;1261;61240;-60
2023/07/31 03:53:18;;;;;;;;;;;;;;;30.59;100.00;99809.29;105089;1259;73454;-60
2023/07/31 03:55:45;;;;;;;;;;;;;;;29.92;100.00;99808.01;105008;1259;61327;-63
2023/07/31 03:58:12;;;;;;;;;;;;;;;29.17;100.00;99806.33;104911;1263;61343;-60
2023/07/31 04:00:39;;;;;;;;;;;;;;;28.47;100.00;99814.16;104900;1260;73255;-62
2023/07/31 04:03:06;;;;;;;;;;;;;;;27.89;100.00;99813.92;104868;1259;67159;-62
2023/07/31 04:05:33;;;;;;;;;;;;;;;27.33;100.00;99813.65;104859;1263;71476;-62
2023/07/31 04:08:00;;;;;;;;;;;;;;;26.82;100.00;99816.26;105001;1261;61160;-63
2023/07/31 04:10:27;;;;;;;;;;;;;;;26.59;100.00;99818.80;105300;1260;61224;-62
2023/07/31 04:12:54;;;;;;;;;;;;;;;26.75;100.00;99816.63;105061;1259;73254;-63
2023/07/31 04:15:21;;;;;;;;;;;;;;;27.11;100.00;99816.21;105198;1259;67229;-60
2023/07/31 04:17:48;;;;;;;;;;;;;;;27.75;100.00;99815.64;105315;1264;72718;-65
2023/07/31 04:20:15;;;;;;;;;;;;;;;28.72;100.00;99813.06;105345;1265;61283;-60
2023/07/31 04:22:41;;;;;;;;;;;;;;;29.86;100.00;99810.07;105105;1259;61129;-62
2023/07/31 04:25:08;;;;;;;;;;;;;;;31.04;100.00;99804.40;105301;1261;74766;-60
2023/07/31 04:27:35;;;;;;;;;;;;;;;32.17;99.24;99806.18;104904;1260;66388;-62
2023/07/31 04:30:03;;;;;;;;;;;;;;;33.12;91.05;99802.53;104843;1259;64078;-62
2023/07/31 04:32:31;;;;;;;;;;;;;;;33.99;80.36;99801.02;105289;1259;61254;-62
2023/07/31 04:34:58;;;;;;;;;;;;;;;34.71;70.49;99804.20;105082;1259;61177;-62
2023/07/31 04:37:25;;;;;;;;;;;;;;;35.35;62.46;99804.51;104823;1259;64828;-61
2023/07/31 04:39:51;;;;;;;;;;;;;;;35.75;57.65;99799.15;105115;1260;61368;-64
2023/07/31 04:42:18;;;;;;;;;;;;;;;36.00;53.22;99797.40;104790;1259;64496;-61
2023/07/31 04:44:45;;;;;;;;;;;;;;;36.16;50.58;99798.15;105094;1259;61235;-63
2023/07/31 04:47:12;;;;;;;;;;;;;;;36.49;48.93;99795.19;105010;1259;61337;-62
2023/07/31 04:49:39;;;;;;;;;;;;;;;36.90;45.01;99801.27;104850;1263;66147;-61
2023/07/31 04:52:05;;;;;;;;;;;;;;;37.28;42.06;99803.06;105313;1259;61406;-64
2023/07/31 04:54:32;;;;;;;;;;;;;;;37.57;39.84;99798.06;104663;1259;64577;-64
2023/07/31 04:56:59;;;;;;;;;;;;;;;37.69;38.02;99799.77;104933;1261;61620;-61
2023/07/31 04:59:26;;;;;;;;;;;;;;;37.71;37.55;99797.54;104823;1262;61144;-59
2023/07/31 05:01:53;;;;;;;;;;;;;;;37.75;36.52;99799.49;104814;1262;66121;-59
2023/07/31 05:04:19;;;;;;;;;;;;;;;37.51;35.46;99803.50;105572;1262;61287;-61
2023/07/31 05:06:46;;;;;;;;;;;;;;;37.22;35.60;99806.58;104691;1262;65015;-60
2023/07/31 05:09:13;;;;;;;;;;;;;;;37.14;35.79;99808.29;105002;1263;61228;-62
2023/07/31 05:11:42;;;;;;;;;;;;;;;37.27;35.00;99808.24;104894;1260;61258;-61
2023/07/31 05:14:09;;;;;;;;;;;;;;;37.54;34.59;99806.25;104884;1261;66087;-62
2023/07/31 05:16:36;;;;;;;;;;;;;;;37.89;34.45;99804.91;105042;1260;61186;-62
2023/07/31 05:19:04;;;;;;;;;;;;;;;38.00;34.20;99805.23;104795;1263;71149;-62
2023/07/31 05:21:30;;;;;;;;;;;;;;;38.00;34.87;99808.41;104722;1263;61743;-61
2023/07/31 05:23:57;;;;;;;;;;;;;;;38.43;34.61;99809.66;104888;1262;61261;-63
2023/07/31 05:26:24;;;;;;;;;;;;;;;38.89;33.33;99810.86;105507;1263;66136;-63
2023/07/31 05:28:51;;;;;;;;;;;;;;;38.98;31.64;99805.91;104921;1261;61142;-61
2023/07/31 05:31:18;;;;;;;;;;;;;;;38.98;31.01;99805.59;104875;1259;62556;-62
2023/07/31 05:33:45;;;;;;;;;;;;;;;39.07;31.27;99807.64;105990;1263;61237;-62
2023/07/31 05:36:12;;;;;;;;;;;;;;;39.18;30.74;99805.55;105656;1259;61244;-64
2023/07/31 05:38:39;;;;;;;;;;;;;;;38.89;31.02;99806.34;104937;1260;64870;-63
2023/07/31 05:41:09;;;;;;;;;;;;;;;38.76;31.63;99801.86;104870;1260;61379;-62
2023/07/31 05:43:36;;;;;;;;;;;;;;;38.72;31.83;99797.80;104820;1261;64092;-60
2023/07/31 05:46:03;;;;;;;;;;;;;;;38.82;31.87;99801.65;104815;1261;61239;-62
2023/07/31 05:48:34;;;;;;;;;;;;;;;38.99;31.68;99804.11;105438;1263;61247;-66
2023/07/31 05:51:00;;;;;;;;;;;;;;;39.06;31.26;99802.80;104594;1261;73973;-61
2023/07/31 05:53:27;;;;;;;;;;;;;;;39.21;31.54;99803.69;104876;1260;61949;-63
2023/07/31 05:55:54;;;;;;;;;;;;;;;39.35;31.12;99802.63;104781;1264;64111;-60
2023/07/31 05:58:21;;;;;;;;;;;;;;;39.51;30.82;99803.56;105253;1259;61341;-60
2023/07/31 06:00:48;;;;;;;;;;;;;;;39.63;30.74;99808.02;104805;1260;61315;-61
2023/07/31 06:03:15;;;;;;;;;;;;;;;39.85;31.12;99808.16;104857;1259;66596;-63
2023/07/31 06:05:42;;;;;;;;;;;;;;;40.27;30.08;99807.53;105230;1260;61237;-64
2023/07/31 06:08:08;;;;;;;;;;;;;;;40.50;28.94;99804.17;104793;1260;64138;-61
2023/07/31 06:10:35;;;;;;;;;;;;;;;40.47;29.31;99804.88;104516;1260;61630;-63
2023/07/31 06:13:02;;;;;;;;;;;;;;;40.65;29.01;99806.14;104809;1260;61153;-61
2023/07/31 06:15:29;;;;;;;;;;;;;;;40.95;28.01;99808.20;104800;1259;65597;-61
2023/07/31 06:17:56;;;;;;;;;;;;;;;41.00;27.53;99807.53;104841;1259;61216;-61
2023/07/31 06:20:23;;;;;;;;;;;;;;;40.78;27.31;99807.17;105329;1259;64698;-63
2023/07/31 06:22:50;;;;;;;;;;;;;;;40.57;28.25;99805.80;104954;1263;62759;-63
2023/07/31 06:25:17;;;;;;;;;;;;;;;40.67;27.82;99806.77;104893;1264;61208;-61
2023/07/31 06:27:44;;;;;;;;;;;;;;;40.72;27.89;99807.29;105040;1260;64631;-61
2023/07/31 06:30:11;;;;;;;;;;;;;;;40.54;27.43;99806.50;104899;1264;61141;-61
2023/07/31 06:32:38;;;;;;;;;;;;;;;40.38;27.70;99801.71;104939;1259;62863;-62
2023/07/31 06:35:05;;;;;;;;;;;;;;;40.38;27.91;99800.24;104990;1263;61153;-63
2023/07/31 06:37:32;;;;;;;;;;;;;;;40.62;27.42;99801.16;104874;1263;61163;-62
2023/07/31 06:40:00;;;;;;;;;;;;;;;40.86;27.63;99803.15;105005;1260;64809;-62
2023/07/31 06:42:27;;;;;;;;;;;;;;;40.83;27.25;99800.89;104849;1259;61331;-64
2023/07/31 06:44:54;;;;;;;;;;;;;;;40.69;27.10;99797.08;105178;1260;62794;-64
2023/07/31 06:47:21;;;;;;;;;;;;;;;40.84;27.30;99793.80;105176;1263;61279;-62
2023/07/31 06:49:47;;;;;;;;;;;;;;;41.16;26.12;99795.94;105168;1263;61227;-64
2023/07/31 06:52:14;;;;;;;;;;;;;;;41.55;24.61;99795.02;104634;1263;66121;-63
2023/07/31 06:54:41;;;;;;;;;;;;;;;41.93;23.59;99793.19;105483;1263;61211;-62
2023/07/31 06:57:08;;;;;;;;;;;;;;;42.39;22.42;99790.95;105243;1260;64325;-63
2023/07/31 06:59:35;;;;;;;;;;;;;;;42.77;23.11;99785.94;105158;1260;61333;-61
2023/07/31 07:02:02;;;;;;;;;;;;;;;43.04;23.16;99784.70;104898;1260;61555;-62
2023/07/31 07:04:32;;;;;;;;;;;;;;;43.02;22.87;99787.68;104598;1260;74605;-61
2023/07/31 07:06:59;;;;;;;;;;;;;;;42.75;22.62;99789.70;105223;1262;61250;-64
2023/07/31 07:09:26;;;;;;;;;;;;;;;42.41;23.28;99792.27;105044;1260;65466;-62
2023/07/31 07:11:52;;;;;;;;;;;;;;;42.34;23.63;99794.08;105076;1260;61171;-62
2023/07/31 07:14:19;;;;;;;;;;;;;;;42.51;23.15;99782.44;104927;1259;61299;-62
2023/07/31 07:16:50;;;;;;;;;;;;;;;42.68;23.12;99783.95;104851;1260;66162;-63
2023/07/31 07:19:17;;;;;;;;;;;;;;;43.00;23.30;99783.65;104525;1263;61229;-61
2023/07/31 07:21:43;;;;;;;;;;;;;;;43.25;22.71;99781.23;105539;1263;63966;-61
2023/07/31 07:24:10;;;;;;;;;;;;;;;43.31;22.18;99780.98;104819;1259;61271;-61
2023/07/31 07:26:37;;;;;;;;;;;;;;;43.24;22.07;99779.35;104957;1259;61401;-61
2023/07/31 07:29:07;;;;;;;;;;;;;;;43.16;22.27;99782.39;105130;1264;66200;-64
2023/07/31 07:31:34;;;;;;;;;;;;;;;43.39;22.20;99780.52;105117;1259;59656;-61
2023/07/31 07:34:02;;;;;;;;;;;;;;;43.65;21.86;99780.41;105074;1259;62755;-62
2023/07/31 07:36:29;;;;;;;;;;;;;;;43.67;21.83;99787.02;104818;1264;61337;-62
2023/07/31 07:38:57;;;;;;;;;;;;;;;43.56;21.89;99781.74;105155;1263;61086;-61
2023/07/31 07:41:24;;;;;;;;;;;;;;;43.53;21.64;99777.64;105101;1262;65973;-63
2023/07/31 07:43:51;;;;;;;;;;;;;;;43.26;21.89;99775.02;105303;1263;61222;-60
2023/07/31 07:46:18;;;;;;;;;;;;;;;42.94;22.53;99772.92;104804;1261;63930;-61
2023/07/31 07:48:45;;;;;;;;;;;;;;;42.83;22.39;99772.38;105379;1263;61114;-63
2023/07/31 07:51:12;;;;;;;;;;;;;;;43.05;22.23;99769.39;105017;1263;61239;-61
2023/07/31 07:53:39;;;;;;;;;;;;;;;43.20;21.83;99772.20;105404;1259;65713;-63
2023/07/31 07:56:06;;;;;;;;;;;;;;;42.83;21.94;99773.14;104908;1259;61341;-61
2023/07/31 07:58:33;;;;;;;;;;;;;;;41.84;22.37;99778.38;105414;1259;63791;-61
2023/07/31 08:01:00;;;;;;;;;;;;;;;40.73;23.32;99782.98;105562;1260;61217;-62
2023/07/31 08:03:27;;;;;;;;;;;;;;;40.06;23.96;99784.10;104982;1260;61274;-62
2023/07/31 08:05:58;;;;;;;;;;;;;;;39.66;25.09;99783.91;105473;1262;65883;-64
2023/07/31 08:08:25;;;;;;;;;;;;;;;39.66;25.10;99781.50;105005;1259;61472;-62
2023/07/31 08:10:52;;;;;;;;;;;;;;;40.03;24.72;99777.39;105045;1259;64210;-63
2023/07/31 08:13:18;;;;;;;;;;;;;;;40.54;25.04;99778.56;104602;1264;61344;-62
2023/07/31 08:15:46;;;;;;;;;;;;;;;40.61;25.30;99778.85;104861;1261;61248;-61
2023/07/31 08:18:12;;;;;;;;;;;;;;;40.43;25.63;99777.12;105344;1260;66938;-62
2023/07/31 08:20:39;;;;;;;;;;;;;;;40.41;25.52;99777.28;105483;1263;61258;-62
2023/07/31 08:23:06;;;;;;;;;;;;;;;40.27;25.62;99774.85;105220;1259;64057;-64
2023/07/31 08:25:36;;;;;;;;;;;;;;;40.06;25.52;99773.58;105317;1259;62163;-62
2023/07/31 08:28:03;;;;;;;;;;;;;;;39.92;25.52;99774.38;105689;1259;61290;-62
2023/07/31 08:30:30;;;;;;;;;;;;;;;39.41;25.77;99773.33;105212;1259;64638;-61
2023/07/31 08:32:57;;;;;;;;;;;;;;;38.72;26.74;99778.27;105520;1263;61259;-61
2023/07/31 08:35:24;;;;;;;;;;;;;;;38.30;27.33;99779.41;105120;1259;63780;-63
2023/07/31 08:37:51;;;;;;;;;;;;;;;38.20;28.31;99775.08;105324;1263;61126;-61
2023/07/31 08:40:18;;;;;;;;;;;;;;;38.25;28.29;99774.02;106060;1259;60902;-64
2023/07/31 08:42:47;;;;;;;;;;;;;;;38.44;27.56;99773.27;104868;1264;66056;-62
2023/07/31 08:45:17;;;;;;;;;;;;;;;38.47;26.85;99775.21;105525;1260;65843;-63
2023/07/31 08:47:45;;;;;;;;;;;;;;;38.15;26.84;99776.38;104857;1259;64633;-62
2023/07/31 08:50:15;;;;;;;;;;;;;;;37.78;27.96;99775.20;104960;1259;61273;-61
2023/07/31 08:52:42;;;;;;;;;;;;;;;37.69;28.75;99772.80;105166;1263;63068;-60
2023/07/31 08:55:09;;;;;;;;;;;;;;;37.71;29.05;99773.83;105196;1259;64881;-63
2023/07/31 08:57:36;;;;;;;;;;;;;;;37.73;29.33;99775.02;105138;1263;61153;-60
2023/07/31 09:00:07;;;;;;;;;;;;;;;37.78;28.59;99772.55;105088;1260;64259;-65
2023/07/31 09:02:39;;;;;;;;;;;;;;;37.54;28.52;99771.67;104878;1259;61341;-60
2023/07/31 09:05:06;;;;;;;;;;;;;;;37.37;29.06;99772.69;105238;1260;61286;-60
2023/07/31 09:07:36;;;;;;;;;;;;;;;37.50;29.53;99773.36;105140;1263;66530;-60
2023/07/31 09:10:04;;;;;;;;;;;;;;;38.03;28.81;99763.30;105020;1259;61344;-64
2023/07/31 09:12:31;;;;;;;;;;;;;;;38.71;28.44;99765.87;105582;1259;63970;-59
2023/07/31 09:14:58;;;;;;;;;;;;;;;39.42;27.09;99760.77;104830;1264;61363;-61
2023/07/31 09:17:28;;;;;;;;;;;;;;;39.58;26.41;99763.02;105428;1260;61350;-60
2023/07/31 09:19:55;;;;;;;;;;;;;;;39.44;26.87;99767.10;105213;1264;66124;-61
2023/07/31 09:22:32;;;;;;;;;;;;;;;39.29;26.67;99768.59;104604;1263;61648;-61
2023/07/31 09:25:18;;;;;;;;;;;;;;;39.01;26.87;99772.35;105279;1259;64724;-64
2023/07/31 09:27:49;;;;;;;;;;;;;;;38.72;26.83;99772.52;105197;1263;61224;-61
2023/07/31 09:30:16;;;;;;;;;;;;;;;38.52;26.97;99772.05;104962;1263;61244;-62
2023/07/31 09:32:45;;;;;;;;;;;;;;;38.65;27.72;99770.93;105732;1260;64526;-60
2023/07/31 09:35:27;;;;;;;;;;;;;;;38.75;27.42;99774.70;105344;1263;61333;-60
2023/07/31 09:37:55;;;;;;;;;;;;;;;38.51;27.22;99771.33;105469;1259;62885;-60
2023/07/31 09:40:28;;;;;;;;;;;;;;;38.29;27.30;99771.86;104868;1259;61250;-60
2023/07/31 09:42:57;;;;;;;;;;;;;;;38.16;27.61;99772.89;105116;1260;61271;-63
2023/07/31 09:45:25;;;;;;;;;;;;;;;37.91;28.39;99769.71;105082;1259;65919;-60
2023/07/31 09:48:08;;;;;;;;;;;;;;;37.81;28.59;99769.00;104880;1260;61208;-62
2023/07/31 09:50:39;;;;;;;;;;;;;;;37.82;28.77;99766.13;104982;1259;64098;-61
2023/07/31 09:53:06;;;;;;;;;;;;;;;37.92;28.31;99765.13;105069;1264;61341;-60
2023/07/31 09:55:33;;;;;;;;;;;;;;;37.98;27.69;99765.09;105057;1260;61498;-62
2023/07/31 09:58:03;;;;;;;;;;;;;;;37.82;28.31;99761.71;105638;1263;66617;-61
2023/07/31 10:00:30;;;;;;;;;;;;;;;37.86;28.62;99759.16;104910;1265;61517;-61
2023/07/31 10:02:58;;;;;;;;;;;;;;;37.96;28.96;99759.63;104650;1265;71264;-61
2023/07/31 10:05:25;;;;;;;;;;;;;;;38.17;28.45;99753.05;105088;1265;61340;-65
2023/07/31 10:07:55;;;;;;;;;;;;;;;38.59;28.68;99754.63;104877;1263;61258;-61
2023/07/31 10:10:22;;;;;;;;;;;;;;;39.27;27.77;99753.22;105070;1263;66026;-62
2023/07/31 10:12:50;;;;;;;;;;;;;;;39.65;26.45;99752.98;105497;1263;61547;-62
2023/07/31 10:15:16;;;;;;;;;;;;;;;39.65;26.47;99750.86;104898;1259;64608;-62
2023/07/31 10:17:43;;;;;;;;;;;;;;;39.75;26.56;99750.73;105280;1264;61247;-61
2023/07/31 10:20:11;;;;;;;;;;;;;;;39.83;26.37;99748.60;104988;1265;61213;-61
2023/07/31 10:22:37;;;;;;;;;;;;;;;39.50;26.53;99745.35;104931;1262;66100;-61
2023/07/31 10:25:05;;;;;;;;;;;;;;;39.16;26.76;99748.38;104780;1259;61820;-62
2023/07/31 10:27:32;;;;;;;;;;;;;;;38.79;27.73;99749.64;104991;1263;62496;-65
2023/07/31 10:29:58;;;;;;;;;;;;;;;38.40;28.06;99748.11;104734;1260;61330;-60
2023/07/31 10:32:25;;;;;;;;;;;;;;;38.05;28.25;99748.02;105072;1259;61272;-61
2023/07/31 10:34:52;;;;;;;;;;;;;;;37.82;29.25;99748.80;105227;1259;66013;-60
2023/07/31 10:37:23;;;;;;;;;;;;;;;37.85;29.83;99746.02;105128;1259;61295;-59
2023/07/31 10:39:55;;;;;;;;;;;;;;;37.93;29.49;99742.36;105174;1263;64249;-59
2023/07/31 10:42:29;;;;;;;;;;;;;;;37.84;29.35;99738.70;104869;1260;61639;-62
2023/07/31 10:44:57;;;;;;;;;;;;;;;37.61;29.48;99739.25;105360;1260;61154;-62
2023/07/31 10:47:24;;;;;;;;;;;;;;;37.51;29.85;99735.85;104848;1263;66092;-64
2023/07/31 10:49:51;;;;;;;;;;;;;;;37.38;30.23;99740.17;104933;1263;61384;-62
2023/07/31 10:52:26;;;;;;;;;;;;;;;37.06;30.46;99738.02;104880;1265;63983;-62
2023/07/31 10:55:20;;;;;;;;;;;;;;;36.70;31.04;99739.34;105024;1261;61417;-62
2023/07/31 10:57:47;;;;;;;;;;;;;;;36.50;32.37;99735.71;105426;1259;60012;-60
2023/07/31 11:00:18;;;;;;;;;;;;;;;36.44;32.40;99737.10;105278;1259;66150;-64
2023/07/31 11:02:56;;;;;;;;;;;;;;;36.46;33.52;99735.42;104699;1264;61350;-64
2023/07/31 11:05:31;;;;;;;;;;;;;;;36.59;33.13;99731.39;104899;1263;63998;-64
2023/07/31 11:07:58;;;;;;;;;;;;;;;36.56;32.50;99730.13;105085;1265;61670;-64
2023/07/31 11:10:25;;;;;;;;;;;;;;;36.43;32.31;99729.95;104927;1260;61525;-63
2023/07/31 11:12:52;;;;;;;;;;;;;;;36.27;31.94;99726.34;105144;1260;65664;-66
2023/07/31 11:15:19;;;;;;;;;;;;;;;36.05;32.33;99726.67;104915;1260;61475;-63
2023/07/31 11:17:46;;;;;;;;;;;;;;;35.89;33.36;99727.67;105203;1260;63973;-64
2023/07/31 11:20:12;;;;;;;;;;;;;;;35.71;34.29;99730.29;105241;1265;61239;-66
2023/07/31 11:22:39;;;;;;;;;;;;;;;35.41;35.48;99726.56;104726;1265;61239;-61
2023/07/31 11:25:07;;;;;;;;;;;;;;;35.08;35.63;99722.89;104933;1259;66106;-63
2023/07/31 11:27:39;;;;;;;;;;;;;;;34.76;36.02;99722.86;104874;1259;61595;-60
2023/07/31 11:30:07;;;;;;;;;;;;;;;34.56;37.14;99724.58;105301;1259;62728;-61
2023/07/31 11:32:35;;;;;;;;;;;;;;;34.47;37.92;99726.85;105109;1259;61140;-60
2023/07/31 11:35:04;;;;;;;;;;;;;;;34.39;38.25;99725.23;105233;1265;61246;-64
2023/07/31 11:37:43;;;;;;;;;;;;;;;34.29;38.05;99726.34;104614;1263;74497;-60
2023/07/31 11:40:10;;;;;;;;;;;;;;;34.44;40.61;99721.62;104730;1265;61312;-62
2023/07/31 11:42:37;;;;;;;;;;;;;;;34.71;38.72;99719.46;104842;1260;62911;-61
2023/07/31 11:45:04;;;;;;;;;;;;;;;34.82;37.93;99715.08;105065;1260;61260;-63
2023/07/31 11:47:34;;;;;;;;;;;;;;;34.84;36.77;99712.33;104796;1265;61170;-60
2023/07/31 11:50:02;;;;;;;;;;;;;;;34.92;38.03;99708.37;105016;1261;65059;-61
2023/07/31 11:52:37;;;;;;;;;;;;;;;35.10;37.91;99706.46;104744;1266;61247;-61
2023/07/31 11:55:06;;;;;;;;;;;;;;;35.19;36.58;99702.27;104721;1262;66163;-62
2023/07/31 11:57:32;;;;;;;;;;;;;;;35.30;36.95;99701.46;105167;1262;61258;-61
2023/07/31 12:00:00;;;;;;;;;;;;;;;35.30;36.38;99697.59;104832;1262;61182;-62
2023/07/31 12:02:27;;;;;;;;;;;;;;;35.18;36.60;99693.67;104729;1259;66028;-61
2023/07/31 12:04:53;;;;;;;;;;;;;;;35.02;36.94;99692.69;104916;1259;61262;-61
2023/07/31 12:07:20;;;;;;;;;;;;;;;34.87;38.64;99691.89;104958;1260;63971;-61
2023/07/31 12:09:53;;;;;;;;;;;;;;;35.00;38.82;99691.29;105176;1264;61238;-64
2023/07/31 12:12:21;;;;;;;;;;;;;;;35.35;38.59;99687.60;105528;1259;61201;-65
2023/07/31 12:14:48;;;;;;;;;;;;;;;35.77;36.61;99685.38;104981;1259;64913;-63
2023/07/31 12:17:15;;;;;;;;;;;;;;;36.08;34.30;99684.31;104839;1265;60937;-63
2023/07/31 12:19:42;;;;;;;;;;;;;;;36.37;34.57;99684.35;104767;1262;66196;-62
2023/07/31 12:22:13;;;;;;;;;;;;;;;36.68;33.83;99678.19;104970;1263;61380;-62
2023/07/31 12:24:46;;;;;;;;;;;;;;;37.00;32.85;99683.08;104977;1263;60011;-61
2023/07/31 12:27:13;;;;;;;;;;;;;;;37.29;33.00;99680.52;105024;1263;64976;-64
2023/07/31 12:29:41;;;;;;;;;;;;;;;37.36;32.12;99676.77;105083;1259;61166;-61
2023/07/31 12:32:18;;;;;;;;;;;;;;;37.34;32.08;99676.52;105128;1265;64118;-63
2023/07/31 12:34:46;;;;;;;;;;;;;;;37.36;31.81;99674.27;104679;1264;61157;-61
2023/07/31 12:37:12;;;;;;;;;;;;;;;37.50;31.60;99672.75;104925;1261;61228;-65